sensor_id;sensor_type;location;lat;lon;timestamp;P1;durP1;ratioP1;P2;durP2;ratioP2
25341;SDS011;13298;48.792;9.154;2023-04-30T00:01:43;5.28;;;4.10;;
25341;SDS011;13298;48.792;9.154;2023-04-30T00:04:09;6.65;;;4.07;;
25341;SDS011;13298;48.792;9.154;2023-04-30T00:06:34;7.70;;;4.57;;
25341;SDS011;13298;48.792;9.154;2023-04-30T00:09:00;6.45;;;4.00;;
25341;SDS011;13298;48.792;9.154;2023-04-30T00:11:26;7.22;;;5.05;;
25341;SDS011;13298;48.792;9.154;2023-04-30T00:13:52;5.22;;;4.00;;
25341;SDS011;13298;48.792;9.154;2023-04-30T00:16:18;7.00;;;4.03;;
25341;SDS011;13298;48.792;9.154;2023-04-30T00:18:43;5.45;;;4.35;;
25341;SDS011;13298;48.792;9.154;2023-04-30T00:21:09;6.53;;;4.35;;
25341;SDS011;13298;48.792;9.154;2023-04-30T00:23:35;5.18;;;3.83;;
25341;SDS011;13298;48.792;9.154;2023-04-30T00:26:01;8.23;;;5.60;;
25341;SDS011;13298;48.792;9.154;2023-04-30T00:28:27;5.03;;;4.22;;
25341;SDS011;13298;48.792;9.154;2023-04-30T00:30:53;6.00;;;4.03;;
25341;SDS011;13298;48.792;9.154;2023-04-30T00:33:18;5.60;;;4.10;;
25341;SDS011;13298;48.792;9.154;2023-04-30T00:35:44;6.32;;;4.13;;
25341;SDS011;13298;48.792;9.154;2023-04-30T00:38:10;4.50;;;3.60;;
25341;SDS011;13298;48.792;9.154;2023-04-30T00:40:37;6.07;;;3.63;;
25341;SDS011;13298;48.792;9.154;2023-04-30T00:43:05;5.57;;;4.18;;
25341;SDS011;13298;48.792;9.154;2023-04-30T00:45:31;6.25;;;4.50;;
25341;SDS011;13298;48.792;9.154;2023-04-30T00:47:57;5.65;;;3.95;;
25341;SDS011;13298;48.792;9.154;2023-04-30T00:50:23;5.85;;;4.35;;
25341;SDS011;13298;48.792;9.154;2023-04-30T00:52:48;6.45;;;4.15;;
25341;SDS011;13298;48.792;9.154;2023-04-30T00:55:15;6.72;;;4.82;;
25341;SDS011;13298;48.792;9.154;2023-04-30T00:57:41;7.47;;;4.82;;
25341;SDS011;13298;48.792;9.154;2023-04-30T01:00:07;7.65;;;5.10;;
25341;SDS011;13298;48.792;9.154;2023-04-30T01:02:35;7.38;;;4.90;;
25341;SDS011;13298;48.792;9.154;2023-04-30T01:05:02;6.30;;;4.60;;
25341;SDS011;13298;48.792;9.154;2023-04-30T01:07:29;6.97;;;4.88;;
25341;SDS011;13298;48.792;9.154;2023-04-30T01:09:56;7.55;;;4.82;;
25341;SDS011;13298;48.792;9.154;2023-04-30T01:12:26;6.72;;;5.03;;
25341;SDS011;13298;48.792;9.154;2023-04-30T01:15:13;6.53;;;4.82;;
25341;SDS011;13298;48.792;9.154;2023-04-30T01:18:08;8.27;;;4.07;;
25341;SDS011;13298;48.792;9.154;2023-04-30T01:20:43;7.60;;;5.30;;
25341;SDS011;13298;48.792;9.154;2023-04-30T01:23:31;6.68;;;4.55;;
25341;SDS011;13298;48.792;9.154;2023-04-30T01:26:52;8.50;;;5.22;;
25341;SDS011;13298;48.792;9.154;2023-04-30T01:29:33;7.70;;;5.18;;
25341;SDS011;13298;48.792;9.154;2023-04-30T01:32:01;7.15;;;5.10;;
25341;SDS011;13298;48.792;9.154;2023-04-30T01:34:27;7.32;;;4.97;;
25341;SDS011;13298;48.792;9.154;2023-04-30T01:36:58;8.18;;;5.70;;
25341;SDS011;13298;48.792;9.154;2023-04-30T01:50:50;10.18;;;5.82;;
25341;SDS011;13298;48.792;9.154;2023-04-30T01:53:23;10.90;;;6.82;;
25341;SDS011;13298;48.792;9.154;2023-04-30T01:55:58;9.88;;;6.82;;
25341;SDS011;13298;48.792;9.154;2023-04-30T01:58:28;10.02;;;6.93;;
25341;SDS011;13298;48.792;9.154;2023-04-30T02:00:56;12.40;;;7.07;;
25341;SDS011;13298;48.792;9.154;2023-04-30T02:03:21;10.68;;;7.90;;
25341;SDS011;13298;48.792;9.154;2023-04-30T02:05:47;10.55;;;7.05;;
25341;SDS011;13298;48.792;9.154;2023-04-30T02:08:14;9.15;;;7.22;;
25341;SDS011;13298;48.792;9.154;2023-04-30T02:10:39;11.63;;;8.05;;
25341;SDS011;13298;48.792;9.154;2023-04-30T02:13:05;9.05;;;6.63;;
25341;SDS011;13298;48.792;9.154;2023-04-30T02:15:31;12.32;;;7.03;;
25341;SDS011;13298;48.792;9.154;2023-04-30T02:17:56;12.38;;;7.55;;
25341;SDS011;13298;48.792;9.154;2023-04-30T02:20:22;11.05;;;6.95;;
25341;SDS011;13298;48.792;9.154;2023-04-30T02:22:48;12.10;;;7.82;;
25341;SDS011;13298;48.792;9.154;2023-04-30T02:25:15;10.32;;;7.82;;
25341;SDS011;13298;48.792;9.154;2023-04-30T02:27:41;11.95;;;7.75;;
25341;SDS011;13298;48.792;9.154;2023-04-30T02:30:06;11.70;;;7.93;;
25341;SDS011;13298;48.792;9.154;2023-04-30T02:32:32;14.27;;;8.35;;
25341;SDS011;13298;48.792;9.154;2023-04-30T02:34:58;10.07;;;7.80;;
25341;SDS011;13298;48.792;9.154;2023-04-30T02:37:24;10.40;;;8.00;;
25341;SDS011;13298;48.792;9.154;2023-04-30T02:39:50;13.30;;;9.07;;
25341;SDS011;13298;48.792;9.154;2023-04-30T02:42:17;10.95;;;7.60;;
25341;SDS011;13298;48.792;9.154;2023-04-30T02:44:43;13.18;;;9.10;;
25341;SDS011;13298;48.792;9.154;2023-04-30T02:47:09;9.25;;;7.28;;
25341;SDS011;13298;48.792;9.154;2023-04-30T02:49:34;11.07;;;8.40;;
25341;SDS011;13298;48.792;9.154;2023-04-30T02:52:00;11.63;;;7.93;;
25341;SDS011;13298;48.792;9.154;2023-04-30T02:54:26;14.15;;;8.40;;
25341;SDS011;13298;48.792;9.154;2023-04-30T02:56:52;10.50;;;7.90;;
25341;SDS011;13298;48.792;9.154;2023-04-30T02:59:17;12.57;;;8.43;;
25341;SDS011;13298;48.792;9.154;2023-04-30T03:01:43;11.18;;;8.05;;
25341;SDS011;13298;48.792;9.154;2023-04-30T03:04:09;10.90;;;7.88;;
25341;SDS011;13298;48.792;9.154;2023-04-30T03:06:34;13.90;;;9.40;;
25341;SDS011;13298;48.792;9.154;2023-04-30T03:09:00;14.82;;;10.10;;
25341;SDS011;13298;48.792;9.154;2023-04-30T03:11:26;13.07;;;8.90;;
25341;SDS011;13298;48.792;9.154;2023-04-30T03:13:52;10.32;;;8.30;;
25341;SDS011;13298;48.792;9.154;2023-04-30T03:16:18;10.20;;;7.97;;
25341;SDS011;13298;48.792;9.154;2023-04-30T03:18:45;9.48;;;7.75;;
25341;SDS011;13298;48.792;9.154;2023-04-30T03:21:12;11.27;;;8.05;;
25341;SDS011;13298;48.792;9.154;2023-04-30T03:23:38;10.88;;;8.80;;
25341;SDS011;13298;48.792;9.154;2023-04-30T03:26:03;12.60;;;9.05;;
25341;SDS011;13298;48.792;9.154;2023-04-30T03:28:29;11.60;;;8.38;;
25341;SDS011;13298;48.792;9.154;2023-04-30T03:30:55;11.43;;;8.25;;
25341;SDS011;13298;48.792;9.154;2023-04-30T03:33:21;9.25;;;7.45;;
25341;SDS011;13298;48.792;9.154;2023-04-30T03:35:47;14.48;;;8.80;;
25341;SDS011;13298;48.792;9.154;2023-04-30T03:38:14;10.93;;;8.27;;
25341;SDS011;13298;48.792;9.154;2023-04-30T03:40:40;11.35;;;7.57;;
25341;SDS011;13298;48.792;9.154;2023-04-30T03:43:05;11.80;;;8.82;;
25341;SDS011;13298;48.792;9.154;2023-04-30T03:45:31;11.48;;;8.27;;
25341;SDS011;13298;48.792;9.154;2023-04-30T03:47:57;10.32;;;7.40;;
25341;SDS011;13298;48.792;9.154;2023-04-30T03:50:23;11.15;;;8.38;;
25341;SDS011;13298;48.792;9.154;2023-04-30T03:52:48;12.60;;;7.90;;
25341;SDS011;13298;48.792;9.154;2023-04-30T03:55:14;14.50;;;8.38;;
25341;SDS011;13298;48.792;9.154;2023-04-30T03:57:40;10.00;;;7.57;;
25341;SDS011;13298;48.792;9.154;2023-04-30T04:00:06;11.48;;;7.82;;
25341;SDS011;13298;48.792;9.154;2023-04-30T04:02:37;11.07;;;7.95;;
25341;SDS011;13298;48.792;9.154;2023-04-30T04:05:03;13.88;;;8.85;;
25341;SDS011;13298;48.792;9.154;2023-04-30T04:07:30;11.43;;;8.35;;
25341;SDS011;13298;48.792;9.154;2023-04-30T04:09:55;10.48;;;7.68;;
25341;SDS011;13298;48.792;9.154;2023-04-30T04:12:21;9.02;;;7.50;;
25341;SDS011;13298;48.792;9.154;2023-04-30T04:14:47;11.65;;;8.75;;
25341;SDS011;13298;48.792;9.154;2023-04-30T04:17:13;13.10;;;9.23;;
25341;SDS011;13298;48.792;9.154;2023-04-30T04:19:39;11.48;;;8.25;;
25341;SDS011;13298;48.792;9.154;2023-04-30T04:22:05;11.05;;;8.55;;
25341;SDS011;13298;48.792;9.154;2023-04-30T04:24:31;12.30;;;8.45;;
25341;SDS011;13298;48.792;9.154;2023-04-30T04:26:57;12.35;;;8.88;;
25341;SDS011;13298;48.792;9.154;2023-04-30T04:29:23;12.38;;;8.73;;
25341;SDS011;13298;48.792;9.154;2023-04-30T04:31:49;11.65;;;8.52;;
25341;SDS011;13298;48.792;9.154;2023-04-30T04:34:15;12.10;;;8.48;;
25341;SDS011;13298;48.792;9.154;2023-04-30T04:36:41;12.30;;;8.38;;
25341;SDS011;13298;48.792;9.154;2023-04-30T04:39:07;10.60;;;7.53;;
25341;SDS011;13298;48.792;9.154;2023-04-30T04:41:33;10.57;;;8.25;;
25341;SDS011;13298;48.792;9.154;2023-04-30T04:44:02;11.85;;;8.45;;
25341;SDS011;13298;48.792;9.154;2023-04-30T04:46:28;9.75;;;7.85;;
25341;SDS011;13298;48.792;9.154;2023-04-30T04:48:55;10.38;;;7.50;;
25341;SDS011;13298;48.792;9.154;2023-04-30T04:51:21;11.68;;;8.05;;
25341;SDS011;13298;48.792;9.154;2023-04-30T04:53:48;12.75;;;9.05;;
25341;SDS011;13298;48.792;9.154;2023-04-30T04:56:13;10.63;;;7.82;;
25341;SDS011;13298;48.792;9.154;2023-04-30T04:58:40;12.13;;;8.50;;
25341;SDS011;13298;48.792;9.154;2023-04-30T05:01:06;10.55;;;7.95;;
25341;SDS011;13298;48.792;9.154;2023-04-30T05:03:33;11.05;;;8.48;;
25341;SDS011;13298;48.792;9.154;2023-04-30T05:06:01;14.98;;;9.95;;
25341;SDS011;13298;48.792;9.154;2023-04-30T05:08:27;11.38;;;8.40;;
25341;SDS011;13298;48.792;9.154;2023-04-30T05:10:53;10.00;;;7.47;;
25341;SDS011;13298;48.792;9.154;2023-04-30T05:13:19;10.75;;;7.63;;
25341;SDS011;13298;48.792;9.154;2023-04-30T05:15:45;10.27;;;7.75;;
25341;SDS011;13298;48.792;9.154;2023-04-30T05:18:11;10.85;;;7.15;;
25341;SDS011;13298;48.792;9.154;2023-04-30T05:20:37;10.95;;;7.72;;
25341;SDS011;13298;48.792;9.154;2023-04-30T05:23:03;11.80;;;8.68;;
25341;SDS011;13298;48.792;9.154;2023-04-30T05:25:28;13.23;;;8.20;;
25341;SDS011;13298;48.792;9.154;2023-04-30T05:27:54;9.88;;;7.85;;
25341;SDS011;13298;48.792;9.154;2023-04-30T05:30:20;10.05;;;7.50;;
25341;SDS011;13298;48.792;9.154;2023-04-30T05:32:46;10.93;;;7.82;;
25341;SDS011;13298;48.792;9.154;2023-04-30T05:35:16;9.80;;;7.28;;
25341;SDS011;13298;48.792;9.154;2023-04-30T05:37:42;12.02;;;8.25;;
25341;SDS011;13298;48.792;9.154;2023-04-30T05:40:08;10.98;;;7.78;;
25341;SDS011;13298;48.792;9.154;2023-04-30T05:42:34;10.32;;;8.23;;
25341;SDS011;13298;48.792;9.154;2023-04-30T05:45:02;11.40;;;8.02;;
25341;SDS011;13298;48.792;9.154;2023-04-30T05:47:28;9.73;;;7.20;;
25341;SDS011;13298;48.792;9.154;2023-04-30T05:49:54;9.27;;;6.97;;
25341;SDS011;13298;48.792;9.154;2023-04-30T05:52:21;11.73;;;8.48;;
25341;SDS011;13298;48.792;9.154;2023-04-30T05:54:47;9.00;;;7.07;;
25341;SDS011;13298;48.792;9.154;2023-04-30T05:57:13;10.40;;;7.60;;
25341;SDS011;13298;48.792;9.154;2023-04-30T05:59:39;11.85;;;8.18;;
25341;SDS011;13298;48.792;9.154;2023-04-30T06:02:05;12.02;;;7.18;;
25341;SDS011;13298;48.792;9.154;2023-04-30T06:04:31;9.25;;;6.40;;
25341;SDS011;13298;48.792;9.154;2023-04-30T06:06:56;9.90;;;7.65;;
25341;SDS011;13298;48.792;9.154;2023-04-30T06:09:22;9.52;;;7.22;;
25341;SDS011;13298;48.792;9.154;2023-04-30T06:11:48;10.63;;;7.22;;
25341;SDS011;13298;48.792;9.154;2023-04-30T06:14:16;10.40;;;7.13;;
25341;SDS011;13298;48.792;9.154;2023-04-30T06:16:43;9.02;;;6.05;;
25341;SDS011;13298;48.792;9.154;2023-04-30T06:19:09;11.50;;;7.75;;
25341;SDS011;13298;48.792;9.154;2023-04-30T06:21:35;8.80;;;6.22;;
25341;SDS011;13298;48.792;9.154;2023-04-30T06:24:01;10.50;;;7.35;;
25341;SDS011;13298;48.792;9.154;2023-04-30T06:26:27;10.15;;;6.93;;
25341;SDS011;13298;48.792;9.154;2023-04-30T06:28:53;19.00;;;7.93;;
25341;SDS011;13298;48.792;9.154;2023-04-30T06:31:18;8.52;;;6.78;;
25341;SDS011;13298;48.792;9.154;2023-04-30T06:33:45;10.45;;;7.70;;
25341;SDS011;13298;48.792;9.154;2023-04-30T06:36:10;9.05;;;6.63;;
25341;SDS011;13298;48.792;9.154;2023-04-30T06:38:37;11.43;;;7.55;;
25341;SDS011;13298;48.792;9.154;2023-04-30T06:41:02;9.68;;;7.28;;
25341;SDS011;13298;48.792;9.154;2023-04-30T06:43:28;9.07;;;6.70;;
25341;SDS011;13298;48.792;9.154;2023-04-30T06:45:54;9.63;;;7.28;;
25341;SDS011;13298;48.792;9.154;2023-04-30T06:48:19;9.63;;;6.88;;
25341;SDS011;13298;48.792;9.154;2023-04-30T06:50:45;8.95;;;7.05;;
25341;SDS011;13298;48.792;9.154;2023-04-30T06:53:11;11.25;;;7.40;;
25341;SDS011;13298;48.792;9.154;2023-04-30T06:55:37;9.90;;;7.07;;
25341;SDS011;13298;48.792;9.154;2023-04-30T06:58:03;9.07;;;6.75;;
25341;SDS011;13298;48.792;9.154;2023-04-30T07:00:32;9.93;;;6.50;;
25341;SDS011;13298;48.792;9.154;2023-04-30T07:02:58;9.85;;;6.72;;
25341;SDS011;13298;48.792;9.154;2023-04-30T07:05:26;9.25;;;6.80;;
25341;SDS011;13298;48.792;9.154;2023-04-30T07:07:53;9.35;;;6.97;;
25341;SDS011;13298;48.792;9.154;2023-04-30T07:10:18;9.38;;;6.97;;
25341;SDS011;13298;48.792;9.154;2023-04-30T07:12:44;10.13;;;7.28;;
25341;SDS011;13298;48.792;9.154;2023-04-30T07:15:10;9.35;;;6.60;;
25341;SDS011;13298;48.792;9.154;2023-04-30T07:17:36;9.82;;;6.45;;
25341;SDS011;13298;48.792;9.154;2023-04-30T07:20:02;8.23;;;6.57;;
25341;SDS011;13298;48.792;9.154;2023-04-30T07:22:29;9.77;;;6.82;;
25341;SDS011;13298;48.792;9.154;2023-04-30T07:24:55;11.07;;;6.80;;
25341;SDS011;13298;48.792;9.154;2023-04-30T07:27:21;8.02;;;6.10;;
25341;SDS011;13298;48.792;9.154;2023-04-30T07:29:47;8.75;;;5.78;;
25341;SDS011;13298;48.792;9.154;2023-04-30T07:32:13;9.02;;;6.28;;
25341;SDS011;13298;48.792;9.154;2023-04-30T07:34:40;9.55;;;6.03;;
25341;SDS011;13298;48.792;9.154;2023-04-30T07:37:06;7.60;;;6.25;;
25341;SDS011;13298;48.792;9.154;2023-04-30T07:39:33;8.48;;;5.63;;
25341;SDS011;13298;48.792;9.154;2023-04-30T07:42:01;9.30;;;6.85;;
25341;SDS011;13298;48.792;9.154;2023-04-30T07:44:28;9.23;;;5.93;;
25341;SDS011;13298;48.792;9.154;2023-04-30T07:46:54;8.38;;;5.68;;
25341;SDS011;13298;48.792;9.154;2023-04-30T07:49:20;7.90;;;6.07;;
25341;SDS011;13298;48.792;9.154;2023-04-30T07:51:46;8.70;;;6.53;;
25341;SDS011;13298;48.792;9.154;2023-04-30T07:54:11;8.00;;;5.72;;
25341;SDS011;13298;48.792;9.154;2023-04-30T07:56:37;7.38;;;5.63;;
25341;SDS011;13298;48.792;9.154;2023-04-30T07:59:03;8.98;;;5.60;;
25341;SDS011;13298;48.792;9.154;2023-04-30T08:01:29;7.53;;;5.55;;
25341;SDS011;13298;48.792;9.154;2023-04-30T08:03:55;7.72;;;4.95;;
25341;SDS011;13298;48.792;9.154;2023-04-30T08:06:21;8.18;;;5.85;;
25341;SDS011;13298;48.792;9.154;2023-04-30T08:08:47;10.57;;;5.50;;
25341;SDS011;13298;48.792;9.154;2023-04-30T08:11:13;8.07;;;6.05;;
25341;SDS011;13298;48.792;9.154;2023-04-30T08:13:40;8.35;;;5.50;;
25341;SDS011;13298;48.792;9.154;2023-04-30T08:16:06;7.75;;;5.90;;
25341;SDS011;13298;48.792;9.154;2023-04-30T08:18:32;6.65;;;5.07;;
25341;SDS011;13298;48.792;9.154;2023-04-30T08:20:58;7.85;;;5.00;;
25341;SDS011;13298;48.792;9.154;2023-04-30T08:23:25;5.80;;;4.43;;
25341;SDS011;13298;48.792;9.154;2023-04-30T08:25:51;5.13;;;4.63;;
25341;SDS011;13298;48.792;9.154;2023-04-30T08:28:17;7.13;;;5.10;;
25341;SDS011;13298;48.792;9.154;2023-04-30T08:30:42;6.10;;;4.88;;
25341;SDS011;13298;48.792;9.154;2023-04-30T08:33:08;5.38;;;4.22;;
25341;SDS011;13298;48.792;9.154;2023-04-30T08:35:34;4.80;;;3.83;;
25341;SDS011;13298;48.792;9.154;2023-04-30T08:38:00;5.53;;;4.40;;
25341;SDS011;13298;48.792;9.154;2023-04-30T08:40:26;9.55;;;3.90;;
25341;SDS011;13298;48.792;9.154;2023-04-30T08:42:56;5.75;;;4.47;;
25341;SDS011;13298;48.792;9.154;2023-04-30T08:45:30;5.55;;;4.65;;
25341;SDS011;13298;48.792;9.154;2023-04-30T08:47:58;5.47;;;4.10;;
25341;SDS011;13298;48.792;9.154;2023-04-30T08:50:25;4.97;;;3.95;;
25341;SDS011;13298;48.792;9.154;2023-04-30T08:52:54;6.68;;;2.95;;
25341;SDS011;13298;48.792;9.154;2023-04-30T08:55:21;4.72;;;3.00;;
25341;SDS011;13298;48.792;9.154;2023-04-30T08:57:47;5.85;;;3.25;;
25341;SDS011;13298;48.792;9.154;2023-04-30T09:00:13;5.00;;;2.78;;
25341;SDS011;13298;48.792;9.154;2023-04-30T09:02:42;3.88;;;2.60;;
25341;SDS011;13298;48.792;9.154;2023-04-30T09:05:10;3.85;;;2.80;;
25341;SDS011;13298;48.792;9.154;2023-04-30T09:07:41;2.80;;;2.47;;
25341;SDS011;13298;48.792;9.154;2023-04-30T09:13:03;2.53;;;2.20;;
25341;SDS011;13298;48.792;9.154;2023-04-30T09:15:32;4.13;;;2.45;;
25341;SDS011;13298;48.792;9.154;2023-04-30T09:18:07;3.10;;;2.72;;
25341;SDS011;13298;48.792;9.154;2023-04-30T09:23:29;3.40;;;2.65;;
25341;SDS011;13298;48.792;9.154;2023-04-30T09:25:55;2.92;;;2.50;;
25341;SDS011;13298;48.792;9.154;2023-04-30T09:28:21;3.72;;;2.50;;
25341;SDS011;13298;48.792;9.154;2023-04-30T09:30:50;4.82;;;2.83;;
25341;SDS011;13298;48.792;9.154;2023-04-30T09:33:17;3.50;;;2.25;;
25341;SDS011;13298;48.792;9.154;2023-04-30T09:35:43;2.90;;;2.22;;
25341;SDS011;13298;48.792;9.154;2023-04-30T09:38:51;3.42;;;2.10;;
25341;SDS011;13298;48.792;9.154;2023-04-30T09:40:58;3.75;;;2.10;;
25341;SDS011;13298;48.792;9.154;2023-04-30T09:43:28;2.75;;;1.98;;
25341;SDS011;13298;48.792;9.154;2023-04-30T09:45:56;2.70;;;2.22;;
25341;SDS011;13298;48.792;9.154;2023-04-30T09:48:24;3.05;;;2.30;;
25341;SDS011;13298;48.792;9.154;2023-04-30T09:50:53;2.53;;;2.03;;
25341;SDS011;13298;48.792;9.154;2023-04-30T09:53:19;4.35;;;2.00;;
25341;SDS011;13298;48.792;9.154;2023-04-30T09:55:47;2.65;;;2.20;;
25341;SDS011;13298;48.792;9.154;2023-04-30T09:58:14;4.45;;;2.05;;
25341;SDS011;13298;48.792;9.154;2023-04-30T10:00:42;2.60;;;2.10;;
25341;SDS011;13298;48.792;9.154;2023-04-30T10:03:10;2.13;;;1.83;;
25341;SDS011;13298;48.792;9.154;2023-04-30T10:05:41;5.28;;;2.08;;
25341;SDS011;13298;48.792;9.154;2023-04-30T10:10:53;2.30;;;1.60;;
25341;SDS011;13298;48.792;9.154;2023-04-30T10:13:28;2.05;;;1.65;;
25341;SDS011;13298;48.792;9.154;2023-04-30T10:15:58;2.03;;;1.63;;
25341;SDS011;13298;48.792;9.154;2023-04-30T10:18:33;3.90;;;1.92;;
25341;SDS011;13298;48.792;9.154;2023-04-30T10:21:03;3.70;;;1.83;;
25341;SDS011;13298;48.792;9.154;2023-04-30T10:23:39;3.05;;;2.20;;
25341;SDS011;13298;48.792;9.154;2023-04-30T10:26:07;4.18;;;1.90;;
25341;SDS011;13298;48.792;9.154;2023-04-30T10:28:36;2.25;;;1.75;;
25341;SDS011;13298;48.792;9.154;2023-04-30T10:31:04;2.10;;;1.80;;
25341;SDS011;13298;48.792;9.154;2023-04-30T10:36:13;2.63;;;1.90;;
25341;SDS011;13298;48.792;9.154;2023-04-30T10:38:50;2.33;;;1.70;;
25341;SDS011;13298;48.792;9.154;2023-04-30T10:41:18;2.20;;;1.85;;
25341;SDS011;13298;48.792;9.154;2023-04-30T10:43:45;2.72;;;1.85;;
25341;SDS011;13298;48.792;9.154;2023-04-30T10:46:20;3.45;;;1.80;;
25341;SDS011;13298;48.792;9.154;2023-04-30T10:48:47;3.85;;;2.10;;
25341;SDS011;13298;48.792;9.154;2023-04-30T10:51:13;6.13;;;2.30;;
25341;SDS011;13298;48.792;9.154;2023-04-30T10:53:40;3.15;;;2.45;;
25341;SDS011;13298;48.792;9.154;2023-04-30T10:56:07;5.65;;;2.40;;
25341;SDS011;13298;48.792;9.154;2023-04-30T10:58:37;4.18;;;2.60;;
25341;SDS011;13298;48.792;9.154;2023-04-30T11:01:07;3.97;;;2.75;;
25341;SDS011;13298;48.792;9.154;2023-04-30T11:03:41;3.78;;;2.60;;
25341;SDS011;13298;48.792;9.154;2023-04-30T11:09:18;3.65;;;2.60;;
25341;SDS011;13298;48.792;9.154;2023-04-30T11:11:44;3.05;;;2.70;;
25341;SDS011;13298;48.792;9.154;2023-04-30T11:14:11;4.65;;;3.13;;
25341;SDS011;13298;48.792;9.154;2023-04-30T11:16:37;4.05;;;2.80;;
25341;SDS011;13298;48.792;9.154;2023-04-30T11:19:10;3.45;;;2.70;;
25341;SDS011;13298;48.792;9.154;2023-04-30T11:21:41;5.43;;;2.63;;
25341;SDS011;13298;48.792;9.154;2023-04-30T11:24:48;7.78;;;2.85;;
25341;SDS011;13298;48.792;9.154;2023-04-30T11:27:19;4.07;;;2.55;;
25341;SDS011;13298;48.792;9.154;2023-04-30T11:29:57;3.40;;;2.50;;
25341;SDS011;13298;48.792;9.154;2023-04-30T11:32:25;2.97;;;2.58;;
25341;SDS011;13298;48.792;9.154;2023-04-30T11:35:00;2.92;;;2.20;;
25341;SDS011;13298;48.792;9.154;2023-04-30T11:37:32;4.03;;;2.55;;
25341;SDS011;13298;48.792;9.154;2023-04-30T11:40:12;3.88;;;2.50;;
25341;SDS011;13298;48.792;9.154;2023-04-30T11:42:39;3.58;;;2.22;;
25341;SDS011;13298;48.792;9.154;2023-04-30T11:45:14;2.85;;;2.05;;
25341;SDS011;13298;48.792;9.154;2023-04-30T11:47:45;4.97;;;2.78;;
25341;SDS011;13298;48.792;9.154;2023-04-30T11:50:16;3.80;;;2.83;;
25341;SDS011;13298;48.792;9.154;2023-04-30T11:52:49;3.28;;;2.20;;
25341;SDS011;13298;48.792;9.154;2023-04-30T11:55:17;5.80;;;2.50;;
25341;SDS011;13298;48.792;9.154;2023-04-30T11:57:46;3.25;;;2.50;;
25341;SDS011;13298;48.792;9.154;2023-04-30T12:00:18;4.10;;;2.65;;
25341;SDS011;13298;48.792;9.154;2023-04-30T12:02:45;6.25;;;2.75;;
25341;SDS011;13298;48.792;9.154;2023-04-30T12:05:17;3.80;;;2.45;;
25341;SDS011;13298;48.792;9.154;2023-04-30T12:07:54;3.38;;;2.60;;
25341;SDS011;13298;48.792;9.154;2023-04-30T12:10:22;3.83;;;2.30;;
25341;SDS011;13298;48.792;9.154;2023-04-30T12:12:49;3.13;;;2.55;;
25341;SDS011;13298;48.792;9.154;2023-04-30T12:15:18;3.58;;;2.42;;
25341;SDS011;13298;48.792;9.154;2023-04-30T12:17:53;5.35;;;2.40;;
25341;SDS011;13298;48.792;9.154;2023-04-30T12:20:21;4.90;;;2.70;;
25341;SDS011;13298;48.792;9.154;2023-04-30T12:22:49;3.50;;;2.38;;
25341;SDS011;13298;48.792;9.154;2023-04-30T12:25:16;7.47;;;2.63;;
25341;SDS011;13298;48.792;9.154;2023-04-30T12:27:44;3.42;;;2.60;;
25341;SDS011;13298;48.792;9.154;2023-04-30T12:30:12;3.50;;;2.47;;
25341;SDS011;13298;48.792;9.154;2023-04-30T12:32:39;3.08;;;1.95;;
25341;SDS011;13298;48.792;9.154;2023-04-30T12:35:08;2.45;;;2.05;;
25341;SDS011;13298;48.792;9.154;2023-04-30T12:37:46;4.28;;;2.33;;
25341;SDS011;13298;48.792;9.154;2023-04-30T12:40:16;2.55;;;2.22;;
25341;SDS011;13298;48.792;9.154;2023-04-30T12:42:44;4.88;;;2.30;;
25341;SDS011;13298;48.792;9.154;2023-04-30T12:45:11;2.40;;;1.98;;
25341;SDS011;13298;48.792;9.154;2023-04-30T12:47:40;2.33;;;1.75;;
25341;SDS011;13298;48.792;9.154;2023-04-30T12:50:08;2.78;;;2.10;;
25341;SDS011;13298;48.792;9.154;2023-04-30T12:52:36;5.82;;;2.40;;
25341;SDS011;13298;48.792;9.154;2023-04-30T12:55:17;3.40;;;2.22;;
25341;SDS011;13298;48.792;9.154;2023-04-30T13:00:42;5.35;;;3.45;;
25341;SDS011;13298;48.792;9.154;2023-04-30T13:03:15;3.35;;;2.22;;
25341;SDS011;13298;48.792;9.154;2023-04-30T13:05:49;3.08;;;2.13;;
25341;SDS011;13298;48.792;9.154;2023-04-30T13:08:16;2.97;;;2.28;;
25341;SDS011;13298;48.792;9.154;2023-04-30T13:10:46;3.00;;;2.03;;
25341;SDS011;13298;48.792;9.154;2023-04-30T13:13:15;3.08;;;2.03;;
25341;SDS011;13298;48.792;9.154;2023-04-30T13:15:42;2.50;;;2.20;;
25341;SDS011;13298;48.792;9.154;2023-04-30T13:18:08;2.55;;;2.20;;
25341;SDS011;13298;48.792;9.154;2023-04-30T13:20:34;4.28;;;2.08;;
25341;SDS011;13298;48.792;9.154;2023-04-30T13:23:04;4.72;;;2.75;;
25341;SDS011;13298;48.792;9.154;2023-04-30T13:25:31;2.42;;;2.20;;
25341;SDS011;13298;48.792;9.154;2023-04-30T13:27:57;4.47;;;2.40;;
25341;SDS011;13298;48.792;9.154;2023-04-30T13:30:23;5.07;;;2.42;;
25341;SDS011;13298;48.792;9.154;2023-04-30T13:32:49;4.30;;;2.33;;
25341;SDS011;13298;48.792;9.154;2023-04-30T13:35:16;3.65;;;2.25;;
25341;SDS011;13298;48.792;9.154;2023-04-30T13:37:42;4.28;;;2.60;;
25341;SDS011;13298;48.792;9.154;2023-04-30T13:40:08;3.85;;;2.88;;
25341;SDS011;13298;48.792;9.154;2023-04-30T13:42:37;3.08;;;2.03;;
25341;SDS011;13298;48.792;9.154;2023-04-30T13:45:05;3.80;;;2.22;;
25341;SDS011;13298;48.792;9.154;2023-04-30T13:47:32;2.88;;;2.30;;
25341;SDS011;13298;48.792;9.154;2023-04-30T13:49:58;3.95;;;2.03;;
25341;SDS011;13298;48.792;9.154;2023-04-30T13:52:23;2.97;;;2.40;;
25341;SDS011;13298;48.792;9.154;2023-04-30T13:54:49;3.63;;;2.22;;
25341;SDS011;13298;48.792;9.154;2023-04-30T13:57:16;2.67;;;2.10;;
25341;SDS011;13298;48.792;9.154;2023-04-30T13:59:41;3.03;;;2.03;;
25341;SDS011;13298;48.792;9.154;2023-04-30T14:02:07;4.18;;;2.83;;
25341;SDS011;13298;48.792;9.154;2023-04-30T14:04:33;2.28;;;1.85;;
25341;SDS011;13298;48.792;9.154;2023-04-30T14:06:59;2.60;;;2.05;;
25341;SDS011;13298;48.792;9.154;2023-04-30T14:09:26;3.65;;;2.50;;
25341;SDS011;13298;48.792;9.154;2023-04-30T14:11:53;2.45;;;2.13;;
25341;SDS011;13298;48.792;9.154;2023-04-30T14:14:20;2.70;;;2.25;;
25341;SDS011;13298;48.792;9.154;2023-04-30T14:16:45;5.40;;;2.20;;
25341;SDS011;13298;48.792;9.154;2023-04-30T14:19:11;3.90;;;2.10;;
25341;SDS011;13298;48.792;9.154;2023-04-30T14:21:37;2.90;;;1.83;;
25341;SDS011;13298;48.792;9.154;2023-04-30T14:24:03;3.92;;;2.22;;
25341;SDS011;13298;48.792;9.154;2023-04-30T14:26:29;3.35;;;1.83;;
25341;SDS011;13298;48.792;9.154;2023-04-30T14:28:55;4.50;;;2.53;;
25341;SDS011;13298;48.792;9.154;2023-04-30T14:31:21;3.38;;;2.50;;
25341;SDS011;13298;48.792;9.154;2023-04-30T14:33:47;5.05;;;3.75;;
25341;SDS011;13298;48.792;9.154;2023-04-30T14:36:13;7.20;;;3.08;;
25341;SDS011;13298;48.792;9.154;2023-04-30T14:38:38;2.30;;;1.98;;
25341;SDS011;13298;48.792;9.154;2023-04-30T14:41:04;2.80;;;1.90;;
25341;SDS011;13298;48.792;9.154;2023-04-30T14:43:30;2.97;;;1.77;;
25341;SDS011;13298;48.792;9.154;2023-04-30T14:45:55;4.95;;;2.30;;
25341;SDS011;13298;48.792;9.154;2023-04-30T14:48:21;13.13;;;5.88;;
25341;SDS011;13298;48.792;9.154;2023-04-30T14:50:47;7.82;;;4.07;;
25341;SDS011;13298;48.792;9.154;2023-04-30T14:53:12;9.63;;;3.80;;
25341;SDS011;13298;48.792;9.154;2023-04-30T14:55:38;5.75;;;2.53;;
25341;SDS011;13298;48.792;9.154;2023-04-30T14:58:04;7.25;;;3.33;;
25341;SDS011;13298;48.792;9.154;2023-04-30T15:00:30;7.75;;;3.85;;
25341;SDS011;13298;48.792;9.154;2023-04-30T15:02:57;3.97;;;2.25;;
25341;SDS011;13298;48.792;9.154;2023-04-30T15:05:23;4.18;;;2.30;;
25341;SDS011;13298;48.792;9.154;2023-04-30T15:07:49;4.53;;;2.03;;
25341;SDS011;13298;48.792;9.154;2023-04-30T15:10:14;6.13;;;2.10;;
25341;SDS011;13298;48.792;9.154;2023-04-30T15:12:40;4.40;;;2.70;;
25341;SDS011;13298;48.792;9.154;2023-04-30T15:15:06;3.90;;;2.55;;